sensor_id;sensor_type;location;lat;lon;timestamp;P1;durP1;ratioP1;P2;durP2;ratioP2
55254;SDS011;41118;44.634;11.182;2023-05-29T00:00:13;4.28;;;1.27;;
55254;SDS011;41118;44.634;11.182;2023-05-29T00:02:42;3.47;;;1.10;;
55254;SDS011;41118;44.634;11.182;2023-05-29T00:05:09;3.72;;;1.30;;
55254;SDS011;41118;44.634;11.182;2023-05-29T00:07:37;4.93;;;1.08;;
55254;SDS011;41118;44.634;11.182;2023-05-29T00:10:04;5.18;;;0.95;;
55254;SDS011;41118;44.634;11.182;2023-05-29T00:12:30;5.03;;;0.95;;
55254;SDS011;41118;44.634;11.182;2023-05-29T00:14:56;6.75;;;2.28;;
55254;SDS011;41118;44.634;11.182;2023-05-29T00:17:23;4.93;;;1.23;;
55254;SDS011;41118;44.634;11.182;2023-05-29T00:19:49;3.75;;;1.48;;
55254;SDS011;41118;44.634;11.182;2023-05-29T00:22:15;3.13;;;0.88;;
55254;SDS011;41118;44.634;11.182;2023-05-29T00:24:41;7.40;;;1.25;;
55254;SDS011;41118;44.634;11.182;2023-05-29T00:27:08;6.18;;;2.42;;
55254;SDS011;41118;44.634;11.182;2023-05-29T00:29:34;4.70;;;1.33;;
55254;SDS011;41118;44.634;11.182;2023-05-29T00:32:01;4.88;;;1.45;;
55254;SDS011;41118;44.634;11.182;2023-05-29T00:34:27;5.38;;;0.85;;
55254;SDS011;41118;44.634;11.182;2023-05-29T00:36:54;7.82;;;1.65;;
55254;SDS011;41118;44.634;11.182;2023-05-29T00:39:20;3.30;;;1.00;;
55254;SDS011;41118;44.634;11.182;2023-05-29T00:41:47;4.68;;;1.85;;
55254;SDS011;41118;44.634;11.182;2023-05-29T00:44:19;4.20;;;1.08;;
55254;SDS011;41118;44.634;11.182;2023-05-29T00:46:45;3.60;;;0.95;;
55254;SDS011;41118;44.634;11.182;2023-05-29T00:49:12;4.95;;;1.52;;
55254;SDS011;41118;44.634;11.182;2023-05-29T00:51:38;5.43;;;0.80;;
55254;SDS011;41118;44.634;11.182;2023-05-29T00:54:05;6.45;;;1.80;;
55254;SDS011;41118;44.634;11.182;2023-05-29T00:56:33;4.53;;;1.70;;
55254;SDS011;41118;44.634;11.182;2023-05-29T00:59:00;5.20;;;1.92;;
55254;SDS011;41118;44.634;11.182;2023-05-29T01:01:26;5.72;;;1.50;;
55254;SDS011;41118;44.634;11.182;2023-05-29T01:03:55;5.15;;;0.85;;
55254;SDS011;41118;44.634;11.182;2023-05-29T01:06:22;5.40;;;1.50;;
55254;SDS011;41118;44.634;11.182;2023-05-29T01:08:48;5.40;;;1.38;;
55254;SDS011;41118;44.634;11.182;2023-05-29T01:11:21;5.65;;;1.52;;
55254;SDS011;41118;44.634;11.182;2023-05-29T01:13:51;4.07;;;1.17;;
55254;SDS011;41118;44.634;11.182;2023-05-29T01:24:03;4.80;;;1.15;;
55254;SDS011;41118;44.634;11.182;2023-05-29T01:29:15;7.00;;;1.92;;
55254;SDS011;41118;44.634;11.182;2023-05-29T01:31:42;5.57;;;0.63;;
55254;SDS011;41118;44.634;11.182;2023-05-29T01:34:09;6.18;;;1.40;;
55254;SDS011;41118;44.634;11.182;2023-05-29T01:36:35;4.07;;;1.05;;
55254;SDS011;41118;44.634;11.182;2023-05-29T01:39:02;4.43;;;1.13;;
55254;SDS011;41118;44.634;11.182;2023-05-29T01:41:28;4.45;;;1.35;;
55254;SDS011;41118;44.634;11.182;2023-05-29T01:43:55;4.70;;;1.50;;
55254;SDS011;41118;44.634;11.182;2023-05-29T01:46:21;2.80;;;0.90;;
55254;SDS011;41118;44.634;11.182;2023-05-29T01:48:50;4.30;;;1.27;;
55254;SDS011;41118;44.634;11.182;2023-05-29T01:51:16;6.75;;;1.95;;
55254;SDS011;41118;44.634;11.182;2023-05-29T01:53:42;8.85;;;2.40;;
55254;SDS011;41118;44.634;11.182;2023-05-29T01:56:09;10.43;;;2.40;;
55254;SDS011;41118;44.634;11.182;2023-05-29T01:58:35;7.40;;;3.03;;
55254;SDS011;41118;44.634;11.182;2023-05-29T02:01:03;6.68;;;2.00;;
55254;SDS011;41118;44.634;11.182;2023-05-29T02:03:29;7.38;;;2.25;;
55254;SDS011;41118;44.634;11.182;2023-05-29T02:05:58;7.43;;;2.38;;
55254;SDS011;41118;44.634;11.182;2023-05-29T02:08:25;8.95;;;2.53;;
55254;SDS011;41118;44.634;11.182;2023-05-29T02:10:51;5.80;;;2.78;;
55254;SDS011;41118;44.634;11.182;2023-05-29T02:13:18;7.00;;;2.50;;
55254;SDS011;41118;44.634;11.182;2023-05-29T02:15:44;7.05;;;2.03;;
55254;SDS011;41118;44.634;11.182;2023-05-29T02:18:10;6.97;;;2.92;;
55254;SDS011;41118;44.634;11.182;2023-05-29T02:20:40;7.68;;;2.65;;
55254;SDS011;41118;44.634;11.182;2023-05-29T02:23:07;6.85;;;3.08;;
55254;SDS011;41118;44.634;11.182;2023-05-29T02:25:33;6.03;;;2.60;;
55254;SDS011;41118;44.634;11.182;2023-05-29T02:28:00;10.10;;;3.63;;
55254;SDS011;41118;44.634;11.182;2023-05-29T02:30:27;10.02;;;3.78;;
55254;SDS011;41118;44.634;11.182;2023-05-29T02:32:53;4.93;;;2.70;;
55254;SDS011;41118;44.634;11.182;2023-05-29T02:35:20;7.60;;;2.88;;
55254;SDS011;41118;44.634;11.182;2023-05-29T02:37:48;6.65;;;2.67;;
55254;SDS011;41118;44.634;11.182;2023-05-29T02:40:14;7.85;;;2.47;;
55254;SDS011;41118;44.634;11.182;2023-05-29T02:42:40;5.10;;;2.65;;
55254;SDS011;41118;44.634;11.182;2023-05-29T02:45:06;10.93;;;2.78;;
55254;SDS011;41118;44.634;11.182;2023-05-29T02:47:33;7.18;;;2.80;;
55254;SDS011;41118;44.634;11.182;2023-05-29T02:49:58;7.78;;;2.10;;
55254;SDS011;41118;44.634;11.182;2023-05-29T02:52:25;4.68;;;1.13;;
55254;SDS011;41118;44.634;11.182;2023-05-29T02:54:51;6.90;;;1.35;;
55254;SDS011;41118;44.634;11.182;2023-05-29T02:57:19;5.45;;;1.20;;
55254;SDS011;41118;44.634;11.182;2023-05-29T02:59:45;4.38;;;1.20;;
55254;SDS011;41118;44.634;11.182;2023-05-29T03:02:11;5.63;;;1.27;;
55254;SDS011;41118;44.634;11.182;2023-05-29T03:04:37;4.72;;;1.20;;
55254;SDS011;41118;44.634;11.182;2023-05-29T03:07:03;6.90;;;1.42;;
55254;SDS011;41118;44.634;11.182;2023-05-29T03:09:29;5.30;;;1.25;;
55254;SDS011;41118;44.634;11.182;2023-05-29T03:11:56;3.33;;;0.88;;
55254;SDS011;41118;44.634;11.182;2023-05-29T03:14:22;2.50;;;0.70;;
55254;SDS011;41118;44.634;11.182;2023-05-29T03:16:48;4.85;;;0.75;;
55254;SDS011;41118;44.634;11.182;2023-05-29T03:19:15;2.42;;;1.08;;
55254;SDS011;41118;44.634;11.182;2023-05-29T03:21:41;2.88;;;0.82;;
55254;SDS011;41118;44.634;11.182;2023-05-29T03:24:07;5.13;;;0.85;;
55254;SDS011;41118;44.634;11.182;2023-05-29T03:26:34;5.43;;;0.98;;
55254;SDS011;41118;44.634;11.182;2023-05-29T03:29:01;7.38;;;1.45;;
55254;SDS011;41118;44.634;11.182;2023-05-29T03:31:27;8.60;;;0.93;;
55254;SDS011;41118;44.634;11.182;2023-05-29T03:33:54;4.35;;;0.77;;
55254;SDS011;41118;44.634;11.182;2023-05-29T03:36:20;5.03;;;0.75;;
55254;SDS011;41118;44.634;11.182;2023-05-29T03:38:47;3.83;;;0.90;;
55254;SDS011;41118;44.634;11.182;2023-05-29T03:41:13;3.50;;;1.23;;
55254;SDS011;41118;44.634;11.182;2023-05-29T03:43:39;4.00;;;1.50;;
55254;SDS011;41118;44.634;11.182;2023-05-29T03:46:05;4.53;;;0.60;;
55254;SDS011;41118;44.634;11.182;2023-05-29T03:48:31;5.80;;;0.70;;
55254;SDS011;41118;44.634;11.182;2023-05-29T03:50:57;4.05;;;0.80;;
55254;SDS011;41118;44.634;11.182;2023-05-29T03:53:23;5.50;;;0.85;;
55254;SDS011;41118;44.634;11.182;2023-05-29T03:55:49;3.95;;;1.13;;
55254;SDS011;41118;44.634;11.182;2023-05-29T03:58:15;4.70;;;1.05;;
55254;SDS011;41118;44.634;11.182;2023-05-29T04:00:42;4.18;;;1.23;;
55254;SDS011;41118;44.634;11.182;2023-05-29T04:03:08;5.47;;;1.80;;
55254;SDS011;41118;44.634;11.182;2023-05-29T04:05:34;5.10;;;1.42;;
55254;SDS011;41118;44.634;11.182;2023-05-29T04:08:00;3.83;;;1.00;;
55254;SDS011;41118;44.634;11.182;2023-05-29T04:10:29;4.28;;;1.15;;
55254;SDS011;41118;44.634;11.182;2023-05-29T04:12:59;6.28;;;1.63;;
55254;SDS011;41118;44.634;11.182;2023-05-29T04:15:25;5.47;;;0.70;;
55254;SDS011;41118;44.634;11.182;2023-05-29T04:17:51;5.22;;;0.77;;
55254;SDS011;41118;44.634;11.182;2023-05-29T04:20:17;5.35;;;0.70;;
55254;SDS011;41118;44.634;11.182;2023-05-29T04:22:43;10.55;;;1.52;;
55254;SDS011;41118;44.634;11.182;2023-05-29T04:25:10;9.00;;;0.98;;
55254;SDS011;41118;44.634;11.182;2023-05-29T04:27:36;5.28;;;1.17;;
55254;SDS011;41118;44.634;11.182;2023-05-29T04:30:06;5.80;;;1.45;;
55254;SDS011;41118;44.634;11.182;2023-05-29T04:32:32;4.78;;;2.40;;
55254;SDS011;41118;44.634;11.182;2023-05-29T04:34:59;5.68;;;1.75;;
55254;SDS011;41118;44.634;11.182;2023-05-29T04:37:29;7.25;;;1.90;;
55254;SDS011;41118;44.634;11.182;2023-05-29T04:39:58;6.45;;;1.20;;
55254;SDS011;41118;44.634;11.182;2023-05-29T04:42:24;8.05;;;2.60;;
55254;SDS011;41118;44.634;11.182;2023-05-29T04:44:51;7.80;;;2.58;;
55254;SDS011;41118;44.634;11.182;2023-05-29T04:47:20;7.70;;;1.73;;
55254;SDS011;41118;44.634;11.182;2023-05-29T04:49:47;5.25;;;2.20;;
55254;SDS011;41118;44.634;11.182;2023-05-29T04:52:15;7.25;;;2.40;;
55254;SDS011;41118;44.634;11.182;2023-05-29T04:54:41;7.20;;;2.72;;
55254;SDS011;41118;44.634;11.182;2023-05-29T04:57:07;9.40;;;3.08;;
55254;SDS011;41118;44.634;11.182;2023-05-29T04:59:34;9.27;;;2.75;;
55254;SDS011;41118;44.634;11.182;2023-05-29T05:02:00;9.23;;;4.32;;
55254;SDS011;41118;44.634;11.182;2023-05-29T05:04:26;7.20;;;3.88;;
55254;SDS011;41118;44.634;11.182;2023-05-29T05:06:52;11.57;;;2.55;;
55254;SDS011;41118;44.634;11.182;2023-05-29T05:09:19;5.82;;;1.90;;
55254;SDS011;41118;44.634;11.182;2023-05-29T05:11:45;7.65;;;3.22;;
55254;SDS011;41118;44.634;11.182;2023-05-29T05:14:11;16.60;;;5.47;;
55254;SDS011;41118;44.634;11.182;2023-05-29T05:16:37;8.77;;;3.22;;
55254;SDS011;41118;44.634;11.182;2023-05-29T05:19:04;10.07;;;3.92;;
55254;SDS011;41118;44.634;11.182;2023-05-29T05:21:30;10.07;;;3.15;;
55254;SDS011;41118;44.634;11.182;2023-05-29T05:23:57;13.23;;;4.78;;
55254;SDS011;41118;44.634;11.182;2023-05-29T05:26:23;12.07;;;3.30;;
55254;SDS011;41118;44.634;11.182;2023-05-29T05:28:51;7.13;;;3.47;;
55254;SDS011;41118;44.634;11.182;2023-05-29T05:31:18;8.68;;;3.40;;
55254;SDS011;41118;44.634;11.182;2023-05-29T05:33:44;6.75;;;2.75;;
55254;SDS011;41118;44.634;11.182;2023-05-29T05:36:10;10.13;;;3.70;;
55254;SDS011;41118;44.634;11.182;2023-05-29T05:38:37;7.90;;;3.90;;
55254;SDS011;41118;44.634;11.182;2023-05-29T05:41:03;15.13;;;4.75;;
55254;SDS011;41118;44.634;11.182;2023-05-29T05:43:29;10.05;;;3.22;;
55254;SDS011;41118;44.634;11.182;2023-05-29T05:45:55;7.05;;;2.10;;
55254;SDS011;41118;44.634;11.182;2023-05-29T05:48:21;9.15;;;2.63;;
55254;SDS011;41118;44.634;11.182;2023-05-29T05:50:48;10.73;;;3.78;;
55254;SDS011;41118;44.634;11.182;2023-05-29T05:53:15;14.18;;;3.40;;
55254;SDS011;41118;44.634;11.182;2023-05-29T05:55:42;7.95;;;3.28;;
55254;SDS011;41118;44.634;11.182;2023-05-29T05:58:08;8.60;;;3.53;;
55254;SDS011;41118;44.634;11.182;2023-05-29T06:00:34;6.95;;;3.20;;
55254;SDS011;41118;44.634;11.182;2023-05-29T06:03:01;9.02;;;3.08;;
55254;SDS011;41118;44.634;11.182;2023-05-29T06:05:28;13.30;;;3.30;;
55254;SDS011;41118;44.634;11.182;2023-05-29T06:07:55;7.07;;;1.60;;
55254;SDS011;41118;44.634;11.182;2023-05-29T06:10:21;10.15;;;4.63;;
55254;SDS011;41118;44.634;11.182;2023-05-29T06:12:47;13.48;;;4.20;;
55254;SDS011;41118;44.634;11.182;2023-05-29T06:15:13;13.00;;;3.60;;
55254;SDS011;41118;44.634;11.182;2023-05-29T06:17:39;10.15;;;2.70;;
55254;SDS011;41118;44.634;11.182;2023-05-29T06:20:05;4.20;;;2.72;;
55254;SDS011;41118;44.634;11.182;2023-05-29T06:22:38;10.93;;;2.08;;
55254;SDS011;41118;44.634;11.182;2023-05-29T06:25:05;9.95;;;2.90;;
55254;SDS011;41118;44.634;11.182;2023-05-29T06:27:31;11.52;;;3.80;;
55254;SDS011;41118;44.634;11.182;2023-05-29T06:29:57;8.65;;;2.50;;
55254;SDS011;41118;44.634;11.182;2023-05-29T06:32:23;6.82;;;2.38;;
55254;SDS011;41118;44.634;11.182;2023-05-29T06:34:49;14.77;;;4.05;;
55254;SDS011;41118;44.634;11.182;2023-05-29T06:37:15;7.65;;;2.70;;
55254;SDS011;41118;44.634;11.182;2023-05-29T06:39:45;9.82;;;3.92;;
55254;SDS011;41118;44.634;11.182;2023-05-29T06:42:11;16.63;;;3.50;;
55254;SDS011;41118;44.634;11.182;2023-05-29T06:44:37;5.00;;;2.40;;
55254;SDS011;41118;44.634;11.182;2023-05-29T06:47:05;6.95;;;2.67;;
55254;SDS011;41118;44.634;11.182;2023-05-29T06:49:32;13.05;;;1.90;;
55254;SDS011;41118;44.634;11.182;2023-05-29T06:51:58;8.70;;;3.55;;
55254;SDS011;41118;44.634;11.182;2023-05-29T06:54:25;7.60;;;3.90;;
55254;SDS011;41118;44.634;11.182;2023-05-29T06:56:51;6.70;;;2.80;;
55254;SDS011;41118;44.634;11.182;2023-05-29T06:59:18;6.25;;;1.95;;
55254;SDS011;41118;44.634;11.182;2023-05-29T07:01:44;17.17;;;2.90;;
55254;SDS011;41118;44.634;11.182;2023-05-29T07:04:11;5.63;;;2.53;;
55254;SDS011;41118;44.634;11.182;2023-05-29T07:06:37;13.70;;;3.78;;
55254;SDS011;41118;44.634;11.182;2023-05-29T07:09:03;7.72;;;2.55;;
55254;SDS011;41118;44.634;11.182;2023-05-29T07:11:30;8.48;;;2.88;;
55254;SDS011;41118;44.634;11.182;2023-05-29T07:13:56;9.35;;;1.83;;
55254;SDS011;41118;44.634;11.182;2023-05-29T07:16:21;10.48;;;2.53;;
55254;SDS011;41118;44.634;11.182;2023-05-29T07:18:47;5.72;;;1.65;;
55254;SDS011;41118;44.634;11.182;2023-05-29T07:21:14;9.27;;;2.25;;
55254;SDS011;41118;44.634;11.182;2023-05-29T07:23:40;12.25;;;3.10;;
55254;SDS011;41118;44.634;11.182;2023-05-29T07:26:06;6.63;;;2.20;;
55254;SDS011;41118;44.634;11.182;2023-05-29T07:28:32;7.10;;;2.25;;
55254;SDS011;41118;44.634;11.182;2023-05-29T07:30:58;9.65;;;2.10;;
55254;SDS011;41118;44.634;11.182;2023-05-29T07:33:25;5.18;;;1.40;;
55254;SDS011;41118;44.634;11.182;2023-05-29T07:35:51;9.73;;;1.65;;
55254;SDS011;41118;44.634;11.182;2023-05-29T07:38:17;5.97;;;1.20;;
55254;SDS011;41118;44.634;11.182;2023-05-29T07:40:43;8.57;;;1.50;;
55254;SDS011;41118;44.634;11.182;2023-05-29T07:43:09;6.30;;;1.40;;
55254;SDS011;41118;44.634;11.182;2023-05-29T07:45:35;5.05;;;2.05;;
55254;SDS011;41118;44.634;11.182;2023-05-29T07:48:01;4.88;;;1.40;;
55254;SDS011;41118;44.634;11.182;2023-05-29T07:50:27;11.27;;;2.03;;
55254;SDS011;41118;44.634;11.182;2023-05-29T07:52:53;7.93;;;4.05;;
55254;SDS011;41118;44.634;11.182;2023-05-29T07:55:21;4.78;;;2.00;;
55254;SDS011;41118;44.634;11.182;2023-05-29T07:57:47;5.97;;;1.55;;
55254;SDS011;41118;44.634;11.182;2023-05-29T08:00:14;12.90;;;1.83;;
55254;SDS011;41118;44.634;11.182;2023-05-29T08:02:40;3.45;;;1.30;;
55254;SDS011;41118;44.634;11.182;2023-05-29T08:05:07;6.93;;;1.35;;
55254;SDS011;41118;44.634;11.182;2023-05-29T08:07:34;3.58;;;1.33;;
55254;SDS011;41118;44.634;11.182;2023-05-29T08:10:00;6.40;;;1.42;;
55254;SDS011;41118;44.634;11.182;2023-05-29T08:12:26;4.35;;;1.75;;
55254;SDS011;41118;44.634;11.182;2023-05-29T08:14:52;5.15;;;1.55;;
55254;SDS011;41118;44.634;11.182;2023-05-29T08:17:19;5.53;;;1.13;;
55254;SDS011;41118;44.634;11.182;2023-05-29T08:19:45;3.83;;;1.45;;
55254;SDS011;41118;44.634;11.182;2023-05-29T08:22:12;5.03;;;1.30;;
55254;SDS011;41118;44.634;11.182;2023-05-29T08:24:38;4.63;;;1.10;;
55254;SDS011;41118;44.634;11.182;2023-05-29T08:27:04;4.40;;;1.35;;
55254;SDS011;41118;44.634;11.182;2023-05-29T08:29:30;8.80;;;0.80;;
55254;SDS011;41118;44.634;11.182;2023-05-29T08:31:56;4.45;;;1.95;;
55254;SDS011;41118;44.634;11.182;2023-05-29T08:34:22;5.32;;;1.08;;
55254;SDS011;41118;44.634;11.182;2023-05-29T08:36:48;6.00;;;0.60;;
55254;SDS011;41118;44.634;11.182;2023-05-29T08:39:16;5.15;;;0.82;;
55254;SDS011;41118;44.634;11.182;2023-05-29T08:42:18;2.78;;;0.93;;
55254;SDS011;41118;44.634;11.182;2023-05-29T08:44:35;5.60;;;0.60;;
55254;SDS011;41118;44.634;11.182;2023-05-29T08:47:02;3.95;;;0.50;;
55254;SDS011;41118;44.634;11.182;2023-05-29T08:49:29;5.07;;;0.50;;
55254;SDS011;41118;44.634;11.182;2023-05-29T08:52:02;3.03;;;0.88;;
55254;SDS011;41118;44.634;11.182;2023-05-29T08:54:31;3.35;;;0.63;;
55254;SDS011;41118;44.634;11.182;2023-05-29T08:56:57;3.88;;;0.95;;
55254;SDS011;41118;44.634;11.182;2023-05-29T08:59:24;4.95;;;0.70;;
55254;SDS011;41118;44.634;11.182;2023-05-29T09:01:51;2.30;;;0.57;;
55254;SDS011;41118;44.634;11.182;2023-05-29T09:04:17;3.47;;;0.77;;
55254;SDS011;41118;44.634;11.182;2023-05-29T09:06:44;4.35;;;0.93;;
55254;SDS011;41118;44.634;11.182;2023-05-29T09:09:11;4.82;;;0.40;;
55254;SDS011;41118;44.634;11.182;2023-05-29T09:11:37;4.10;;;0.50;;
55254;SDS011;41118;44.634;11.182;2023-05-29T09:14:04;5.57;;;0.70;;
55254;SDS011;41118;44.634;11.182;2023-05-29T09:16:30;2.28;;;0.60;;
55254;SDS011;41118;44.634;11.182;2023-05-29T09:19:05;2.58;;;0.50;;
55254;SDS011;41118;44.634;11.182;2023-05-29T09:21:31;7.22;;;0.80;;
55254;SDS011;41118;44.634;11.182;2023-05-29T09:24:04;8.23;;;1.60;;
55254;SDS011;41118;44.634;11.182;2023-05-29T09:26:31;4.25;;;0.80;;
55254;SDS011;41118;44.634;11.182;2023-05-29T09:28:57;3.22;;;0.50;;
55254;SDS011;41118;44.634;11.182;2023-05-29T09:31:23;16.85;;;1.65;;
55254;SDS011;41118;44.634;11.182;2023-05-29T09:33:50;2.50;;;0.73;;
55254;SDS011;41118;44.634;11.182;2023-05-29T09:36:19;2.85;;;0.50;;
55254;SDS011;41118;44.634;11.182;2023-05-29T09:38:47;3.38;;;0.70;;
55254;SDS011;41118;44.634;11.182;2023-05-29T09:41:13;4.22;;;0.50;;
55254;SDS011;41118;44.634;11.182;2023-05-29T09:43:40;2.42;;;0.50;;
55254;SDS011;41118;44.634;11.182;2023-05-29T09:46:06;2.75;;;0.40;;
55254;SDS011;41118;44.634;11.182;2023-05-29T09:48:32;3.28;;;0.40;;
55254;SDS011;41118;44.634;11.182;2023-05-29T09:51:00;3.25;;;0.50;;
55254;SDS011;41118;44.634;11.182;2023-05-29T09:53:28;1.85;;;0.40;;
55254;SDS011;41118;44.634;11.182;2023-05-29T09:55:54;2.92;;;0.55;;
55254;SDS011;41118;44.634;11.182;2023-05-29T09:58:21;6.57;;;0.68;;
55254;SDS011;41118;44.634;11.182;2023-05-29T10:00:48;4.25;;;0.40;;
55254;SDS011;41118;44.634;11.182;2023-05-29T10:03:14;1.60;;;0.52;;
55254;SDS011;41118;44.634;11.182;2023-05-29T10:05:41;2.95;;;0.40;;
55254;SDS011;41118;44.634;11.182;2023-05-29T10:08:08;4.15;;;0.32;;
55254;SDS011;41118;44.634;11.182;2023-05-29T10:10:34;1.60;;;0.40;;
55254;SDS011;41118;44.634;11.182;2023-05-29T10:13:01;2.92;;;0.73;;
55254;SDS011;41118;44.634;11.182;2023-05-29T10:15:28;2.75;;;0.50;;
55254;SDS011;41118;44.634;11.182;2023-05-29T10:17:57;3.55;;;0.65;;
55254;SDS011;41118;44.634;11.182;2023-05-29T10:20:25;2.25;;;0.38;;
55254;SDS011;41118;44.634;11.182;2023-05-29T10:22:52;3.47;;;0.45;;
55254;SDS011;41118;44.634;11.182;2023-05-29T10:25:20;1.83;;;0.50;;
55254;SDS011;41118;44.634;11.182;2023-05-29T10:27:47;1.50;;;0.30;;
55254;SDS011;41118;44.634;11.182;2023-05-29T10:35:31;3.13;;;0.47;;
55254;SDS011;41118;44.634;11.182;2023-05-29T10:38:11;3.55;;;0.35;;
55254;SDS011;41118;44.634;11.182;2023-05-29T10:40:38;1.88;;;0.40;;
55254;SDS011;41118;44.634;11.182;2023-05-29T10:43:04;7.03;;;0.40;;
55254;SDS011;41118;44.634;11.182;2023-05-29T10:50:40;1.92;;;0.68;;
55254;SDS011;41118;44.634;11.182;2023-05-29T10:53:07;3.33;;;0.35;;
55254;SDS011;41118;44.634;11.182;2023-05-29T10:55:35;1.40;;;0.38;;
55254;SDS011;41118;44.634;11.182;2023-05-29T10:58:04;3.55;;;0.40;;
55254;SDS011;41118;44.634;11.182;2023-05-29T11:00:30;1.42;;;0.40;;
55254;SDS011;41118;44.634;11.182;2023-05-29T11:02:57;3.63;;;0.35;;
55254;SDS011;41118;44.634;11.182;2023-05-29T11:05:23;4.25;;;0.52;;
55254;SDS011;41118;44.634;11.182;2023-05-29T11:07:53;6.15;;;0.75;;
55254;SDS011;41118;44.634;11.182;2023-05-29T11:13:05;2.30;;;0.50;;
55254;SDS011;41118;44.634;11.182;2023-05-29T11:15:32;1.48;;;0.30;;
55254;SDS011;41118;44.634;11.182;2023-05-29T11:18:08;4.05;;;0.40;;
55254;SDS011;41118;44.634;11.182;2023-05-29T11:20:53;2.15;;;0.52;;
55254;SDS011;41118;44.634;11.182;2023-05-29T11:23:23;3.47;;;0.40;;
55254;SDS011;41118;44.634;11.182;2023-05-29T11:25:50;4.10;;;0.50;;
55254;SDS011;41118;44.634;11.182;2023-05-29T11:28:16;3.30;;;0.52;;
55254;SDS011;41118;44.634;11.182;2023-05-29T11:30:44;3.08;;;0.38;;
55254;SDS011;41118;44.634;11.182;2023-05-29T11:33:15;3.53;;;1.20;;
55254;SDS011;41118;44.634;11.182;2023-05-29T11:35:44;1.42;;;0.28;;
55254;SDS011;41118;44.634;11.182;2023-05-29T11:38:11;4.00;;;0.30;;
55254;SDS011;41118;44.634;11.182;2023-05-29T11:40:37;1.15;;;0.30;;
55254;SDS011;41118;44.634;11.182;2023-05-29T11:43:03;3.00;;;0.55;;
55254;SDS011;41118;44.634;11.182;2023-05-29T11:45:31;4.28;;;0.40;;
55254;SDS011;41118;44.634;11.182;2023-05-29T11:48:18;2.58;;;0.40;;
55254;SDS011;41118;44.634;11.182;2023-05-29T11:50:44;1.65;;;0.30;;
55254;SDS011;41118;44.634;11.182;2023-05-29T11:53:11;4.00;;;0.20;;
55254;SDS011;41118;44.634;11.182;2023-05-29T11:55:37;2.58;;;0.40;;
55254;SDS011;41118;44.634;11.182;2023-05-29T11:58:04;1.38;;;0.35;;
55254;SDS011;41118;44.634;11.182;2023-05-29T12:00:37;1.30;;;0.30;;
55254;SDS011;41118;44.634;11.182;2023-05-29T12:03:03;4.15;;;0.30;;
55254;SDS011;41118;44.634;11.182;2023-05-29T12:05:43;2.35;;;0.40;;
55254;SDS011;41118;44.634;11.182;2023-05-29T12:08:09;2.55;;;0.30;;
55254;SDS011;41118;44.634;11.182;2023-05-29T12:10:36;1.40;;;0.30;;
55254;SDS011;41118;44.634;11.182;2023-05-29T12:13:02;2.75;;;0.30;;
55254;SDS011;41118;44.634;11.182;2023-05-29T12:15:28;3.15;;;0.30;;
55254;SDS011;41118;44.634;11.182;2023-05-29T12:17:54;1.05;;;0.30;;
55254;SDS011;41118;44.634;11.182;2023-05-29T12:20:22;2.78;;;0.45;;
55254;SDS011;41118;44.634;11.182;2023-05-29T12:22:51;2.22;;;0.60;;
55254;SDS011;41118;44.634;11.182;2023-05-29T12:25:19;5.00;;;0.38;;
55254;SDS011;41118;44.634;11.182;2023-05-29T12:27:46;2.75;;;0.40;;
55254;SDS011;41118;44.634;11.182;2023-05-29T12:30:13;1.58;;;0.30;;
55254;SDS011;41118;44.634;11.182;2023-05-29T12:32:40;3.67;;;0.30;;
55254;SDS011;41118;44.634;11.182;2023-05-29T12:37:41;3.22;;;0.30;;
55254;SDS011;41118;44.634;11.182;2023-05-29T12:40:13;2.30;;;0.60;;
55254;SDS011;41118;44.634;11.182;2023-05-29T12:42:40;1.40;;;0.33;;
55254;SDS011;41118;44.634;11.182;2023-05-29T12:45:07;6.55;;;0.95;;
55254;SDS011;41118;44.634;11.182;2023-05-29T12:47:34;3.65;;;0.30;;
55254;SDS011;41118;44.634;11.182;2023-05-29T12:50:04;3.35;;;0.30;;
55254;SDS011;41118;44.634;11.182;2023-05-29T12:52:30;1.45;;;0.30;;
55254;SDS011;41118;44.634;11.182;2023-05-29T12:54:56;2.63;;;0.30;;
55254;SDS011;41118;44.634;11.182;2023-05-29T12:57:22;2.47;;;0.22;;
55254;SDS011;41118;44.634;11.182;2023-05-29T12:59:49;3.85;;;0.30;;
55254;SDS011;41118;44.634;11.182;2023-05-29T13:02:15;1.77;;;0.30;;
55254;SDS011;41118;44.634;11.182;2023-05-29T13:04:42;2.03;;;0.30;;
55254;SDS011;41118;44.634;11.182;2023-05-29T13:07:08;1.90;;;0.30;;
55254;SDS011;41118;44.634;11.182;2023-05-29T13:09:34;5.32;;;0.32;;
55254;SDS011;41118;44.634;11.182;2023-05-29T13:12:00;5.45;;;0.30;;
55254;SDS011;41118;44.634;11.182;2023-05-29T13:14:26;2.75;;;0.30;;
55254;SDS011;41118;44.634;11.182;2023-05-29T13:16:52;1.92;;;0.30;;
55254;SDS011;41118;44.634;11.182;2023-05-29T13:19:18;1.17;;;0.30;;
55254;SDS011;41118;44.634;11.182;2023-05-29T13:21:44;3.25;;;0.40;;
55254;SDS011;41118;44.634;11.182;2023-05-29T13:24:13;1.77;;;0.40;;
55254;SDS011;41118;44.634;11.182;2023-05-29T13:26:39;1.33;;;0.60;;
55254;SDS011;41118;44.634;11.182;2023-05-29T13:29:05;3.95;;;0.30;;
55254;SDS011;41118;44.634;11.182;2023-05-29T13:31:31;1.42;;;0.22;;
55254;SDS011;41118;44.634;11.182;2023-05-29T13:33:57;4.88;;;0.73;;
55254;SDS011;41118;44.634;11.182;2023-05-29T13:36:24;3.00;;;0.30;;
55254;SDS011;41118;44.634;11.182;2023-05-29T13:38:50;1.27;;;0.20;;
55254;SDS011;41118;44.634;11.182;2023-05-29T13:41:16;4.35;;;0.30;;
55254;SDS011;41118;44.634;11.182;2023-05-29T13:43:42;4.32;;;0.30;;
55254;SDS011;41118;44.634;11.182;2023-05-29T13:46:08;2.15;;;0.20;;
55254;SDS011;41118;44.634;11.182;2023-05-29T13:48:34;1.00;;;0.20;;
55254;SDS011;41118;44.634;11.182;2023-05-29T13:51:00;3.67;;;0.50;;
55254;SDS011;41118;44.634;11.182;2023-05-29T13:53:26;0.88;;;0.30;;
55254;SDS011;41118;44.634;11.182;2023-05-29T13:55:52;1.73;;;0.32;;
55254;SDS011;41118;44.634;11.182;2023-05-29T13:58:18;3.05;;;0.68;;
55254;SDS011;41118;44.634;11.182;2023-05-29T14:00:44;1.42;;;0.30;;
55254;SDS011;41118;44.634;11.182;2023-05-29T14:03:11;1.20;;;0.20;;
55254;SDS011;41118;44.634;11.182;2023-05-29T14:05:37;3.40;;;0.30;;
55254;SDS011;41118;44.634;11.182;2023-05-29T14:08:03;5.80;;;0.30;;
55254;SDS011;41118;44.634;11.182;2023-05-29T14:10:29;3.63;;;0.20;;
55254;SDS011;41118;44.634;11.182;2023-05-29T14:12:55;3.55;;;0.20;;
55254;SDS011;41118;44.634;11.182;2023-05-29T14:15:22;0.80;;;0.20;;
55254;SDS011;41118;44.634;11.182;2023-05-29T14:17:48;4.65;;;0.30;;
55254;SDS011;41118;44.634;11.182;2023-05-29T14:20:14;1.35;;;0.30;;
55254;SDS011;41118;44.634;11.182;2023-05-29T14:22:40;2.10;;;0.30;;
55254;SDS011;41118;44.634;11.182;2023-05-29T14:25:07;3.55;;;0.30;;
55254;SDS011;41118;44.634;11.182;2023-05-29T14:27:33;6.07;;;0.30;;
55254;SDS011;41118;44.634;11.182;2023-05-29T14:29:59;2.45;;;0.38;;
55254;SDS011;41118;44.634;11.182;2023-05-29T14:32:25;1.27;;;0.30;;
55254;SDS011;41118;44.634;11.182;2023-05-29T14:34:51;2.03;;;0.47;;
55254;SDS011;41118;44.634;11.182;2023-05-29T14:37:17;1.65;;;0.20;;
55254;SDS011;41118;44.634;11.182;2023-05-29T14:39:43;3.05;;;0.30;;
55254;SDS011;41118;44.634;11.182;2023-05-29T14:42:09;1.98;;;0.30;;
55254;SDS011;41118;44.634;11.182;2023-05-29T14:44:35;2.50;;;0.20;;
55254;SDS011;41118;44.634;11.182;2023-05-29T14:47:01;2.90;;;0.47;;
55254;SDS011;41118;44.634;11.182;2023-05-29T14:49:27;0.93;;;0.20;;
55254;SDS011;41118;44.634;11.182;2023-05-29T14:51:57;2.50;;;0.20;;
55254;SDS011;41118;44.634;11.182;2023-05-29T14:54:23;2.28;;;0.30;;
55254;SDS011;41118;44.634;11.182;2023-05-29T14:56:49;0.80;;;0.20;;